sensor_id;sensor_type;location;lat;lon;timestamp;P1;durP1;ratioP1;P2;durP2;ratioP2
9445;SDS011;4761;49.490;10.908;2024-01-16T00:02:05;2.47;;;1.73;;
9445;SDS011;4761;49.490;10.908;2024-01-16T00:04:33;2.27;;;1.67;;
9445;SDS011;4761;49.490;10.908;2024-01-16T00:07:00;2.93;;;1.70;;
9445;SDS011;4761;49.490;10.908;2024-01-16T00:09:26;2.90;;;2.00;;
9445;SDS011;4761;49.490;10.908;2024-01-16T00:11:52;2.43;;;1.70;;
9445;SDS011;4761;49.490;10.908;2024-01-16T00:14:17;2.40;;;1.70;;
9445;SDS011;4761;49.490;10.908;2024-01-16T00:16:45;2.20;;;1.77;;
9445;SDS011;4761;49.490;10.908;2024-01-16T00:19:11;2.70;;;1.80;;
9445;SDS011;4761;49.490;10.908;2024-01-16T00:21:38;2.03;;;1.70;;
9445;SDS011;4761;49.490;10.908;2024-01-16T00:24:08;2.10;;;1.60;;
9445;SDS011;4761;49.490;10.908;2024-01-16T00:26:33;3.30;;;1.90;;
9445;SDS011;4761;49.490;10.908;2024-01-16T00:28:59;3.43;;;1.67;;
9445;SDS011;4761;49.490;10.908;2024-01-16T00:31:25;2.03;;;1.60;;
9445;SDS011;4761;49.490;10.908;2024-01-16T00:33:51;2.03;;;1.70;;
9445;SDS011;4761;49.490;10.908;2024-01-16T00:36:16;2.27;;;1.57;;
9445;SDS011;4761;49.490;10.908;2024-01-16T00:38:42;2.60;;;1.63;;
9445;SDS011;4761;49.490;10.908;2024-01-16T00:41:07;2.30;;;1.70;;
9445;SDS011;4761;49.490;10.908;2024-01-16T00:43:33;2.20;;;1.73;;
9445;SDS011;4761;49.490;10.908;2024-01-16T00:46:00;2.23;;;1.60;;
9445;SDS011;4761;49.490;10.908;2024-01-16T00:48:26;2.17;;;1.70;;
9445;SDS011;4761;49.490;10.908;2024-01-16T00:50:51;2.40;;;1.67;;
9445;SDS011;4761;49.490;10.908;2024-01-16T00:53:17;1.77;;;1.50;;
9445;SDS011;4761;49.490;10.908;2024-01-16T00:55:42;3.90;;;1.87;;
9445;SDS011;4761;49.490;10.908;2024-01-16T00:58:08;2.50;;;1.70;;
9445;SDS011;4761;49.490;10.908;2024-01-16T01:00:33;2.80;;;1.87;;
9445;SDS011;4761;49.490;10.908;2024-01-16T01:03:00;2.27;;;1.80;;
9445;SDS011;4761;49.490;10.908;2024-01-16T01:05:26;3.00;;;1.97;;
9445;SDS011;4761;49.490;10.908;2024-01-16T01:07:56;2.07;;;1.70;;
9445;SDS011;4761;49.490;10.908;2024-01-16T01:10:22;4.40;;;1.70;;
9445;SDS011;4761;49.490;10.908;2024-01-16T01:12:48;2.33;;;1.63;;
9445;SDS011;4761;49.490;10.908;2024-01-16T01:15:14;2.40;;;1.70;;
9445;SDS011;4761;49.490;10.908;2024-01-16T01:17:40;2.30;;;1.70;;
9445;SDS011;4761;49.490;10.908;2024-01-16T01:20:07;2.40;;;1.77;;
9445;SDS011;4761;49.490;10.908;2024-01-16T01:22:33;2.03;;;1.60;;
9445;SDS011;4761;49.490;10.908;2024-01-16T01:24:59;2.23;;;1.80;;
9445;SDS011;4761;49.490;10.908;2024-01-16T01:27:24;1.90;;;1.67;;
9445;SDS011;4761;49.490;10.908;2024-01-16T01:29:50;1.93;;;1.73;;
9445;SDS011;4761;49.490;10.908;2024-01-16T01:32:15;1.93;;;1.53;;
9445;SDS011;4761;49.490;10.908;2024-01-16T01:34:41;2.30;;;1.80;;
9445;SDS011;4761;49.490;10.908;2024-01-16T01:37:07;2.67;;;1.80;;
9445;SDS011;4761;49.490;10.908;2024-01-16T01:39:33;2.00;;;1.60;;
9445;SDS011;4761;49.490;10.908;2024-01-16T01:41:58;2.03;;;1.73;;
9445;SDS011;4761;49.490;10.908;2024-01-16T01:44:24;2.60;;;1.90;;
9445;SDS011;4761;49.490;10.908;2024-01-16T01:46:50;2.23;;;1.80;;
9445;SDS011;4761;49.490;10.908;2024-01-16T01:49:18;3.67;;;1.80;;
9445;SDS011;4761;49.490;10.908;2024-01-16T01:51:44;2.40;;;1.50;;
9445;SDS011;4761;49.490;10.908;2024-01-16T01:54:10;2.03;;;1.60;;
9445;SDS011;4761;49.490;10.908;2024-01-16T01:56:37;2.78;;;1.92;;
9445;SDS011;4761;49.490;10.908;2024-01-16T01:59:04;2.20;;;1.80;;
9445;SDS011;4761;49.490;10.908;2024-01-16T02:01:30;2.40;;;1.80;;
9445;SDS011;4761;49.490;10.908;2024-01-16T02:03:59;2.73;;;1.83;;
9445;SDS011;4761;49.490;10.908;2024-01-16T02:06:26;2.90;;;2.03;;
9445;SDS011;4761;49.490;10.908;2024-01-16T02:08:52;3.63;;;2.20;;
9445;SDS011;4761;49.490;10.908;2024-01-16T02:11:18;2.10;;;1.90;;
9445;SDS011;4761;49.490;10.908;2024-01-16T02:13:44;2.83;;;1.93;;
9445;SDS011;4761;49.490;10.908;2024-01-16T02:18:45;2.50;;;2.00;;
9445;SDS011;4761;49.490;10.908;2024-01-16T02:21:11;2.28;;;1.85;;
9445;SDS011;4761;49.490;10.908;2024-01-16T02:23:40;2.50;;;1.87;;
9445;SDS011;4761;49.490;10.908;2024-01-16T02:26:06;2.83;;;1.80;;
9445;SDS011;4761;49.490;10.908;2024-01-16T02:28:32;2.80;;;2.17;;
9445;SDS011;4761;49.490;10.908;2024-01-16T02:30:57;3.33;;;2.00;;
9445;SDS011;4761;49.490;10.908;2024-01-16T02:33:23;3.03;;;1.70;;
9445;SDS011;4761;49.490;10.908;2024-01-16T02:35:48;2.10;;;1.80;;
9445;SDS011;4761;49.490;10.908;2024-01-16T02:38:14;3.30;;;1.87;;
9445;SDS011;4761;49.490;10.908;2024-01-16T02:40:39;2.17;;;1.83;;
9445;SDS011;4761;49.490;10.908;2024-01-16T02:43:05;2.17;;;1.77;;
9445;SDS011;4761;49.490;10.908;2024-01-16T02:45:31;2.70;;;2.10;;
9445;SDS011;4761;49.490;10.908;2024-01-16T02:47:57;2.83;;;1.90;;
9445;SDS011;4761;49.490;10.908;2024-01-16T02:50:23;2.57;;;2.00;;
9445;SDS011;4761;49.490;10.908;2024-01-16T02:52:48;2.33;;;2.13;;
9445;SDS011;4761;49.490;10.908;2024-01-16T02:55:14;2.10;;;1.90;;
9445;SDS011;4761;49.490;10.908;2024-01-16T02:57:39;2.37;;;1.90;;
9445;SDS011;4761;49.490;10.908;2024-01-16T03:00:05;2.07;;;1.77;;
9445;SDS011;4761;49.490;10.908;2024-01-16T03:02:32;2.50;;;2.00;;
9445;SDS011;4761;49.490;10.908;2024-01-16T03:04:58;1.90;;;1.70;;
9445;SDS011;4761;49.490;10.908;2024-01-16T03:07:24;2.60;;;2.00;;
9445;SDS011;4761;49.490;10.908;2024-01-16T03:09:49;2.60;;;1.90;;
9445;SDS011;4761;49.490;10.908;2024-01-16T03:12:15;2.67;;;1.97;;
9445;SDS011;4761;49.490;10.908;2024-01-16T03:14:40;2.17;;;1.87;;
9445;SDS011;4761;49.490;10.908;2024-01-16T03:17:06;3.00;;;2.07;;
9445;SDS011;4761;49.490;10.908;2024-01-16T03:19:32;3.97;;;2.20;;
9445;SDS011;4761;49.490;10.908;2024-01-16T03:21:57;2.80;;;2.00;;
9445;SDS011;4761;49.490;10.908;2024-01-16T03:24:23;3.23;;;1.90;;
9445;SDS011;4761;49.490;10.908;2024-01-16T03:26:49;2.57;;;2.00;;
9445;SDS011;4761;49.490;10.908;2024-01-16T03:29:14;2.07;;;1.73;;
9445;SDS011;4761;49.490;10.908;2024-01-16T03:31:40;2.87;;;1.93;;
9445;SDS011;4761;49.490;10.908;2024-01-16T03:34:05;2.27;;;1.87;;
9445;SDS011;4761;49.490;10.908;2024-01-16T03:36:33;2.90;;;1.90;;
9445;SDS011;4761;49.490;10.908;2024-01-16T03:38:59;2.20;;;1.97;;
9445;SDS011;4761;49.490;10.908;2024-01-16T03:41:24;2.97;;;2.00;;
9445;SDS011;4761;49.490;10.908;2024-01-16T03:43:50;2.20;;;1.77;;
9445;SDS011;4761;49.490;10.908;2024-01-16T03:46:15;3.47;;;1.97;;
9445;SDS011;4761;49.490;10.908;2024-01-16T03:48:41;2.73;;;2.10;;
9445;SDS011;4761;49.490;10.908;2024-01-16T03:51:07;2.47;;;2.10;;
9445;SDS011;4761;49.490;10.908;2024-01-16T03:53:33;2.27;;;2.00;;
9445;SDS011;4761;49.490;10.908;2024-01-16T03:55:59;2.20;;;1.80;;
9445;SDS011;4761;49.490;10.908;2024-01-16T03:58:24;3.57;;;2.03;;
9445;SDS011;4761;49.490;10.908;2024-01-16T04:00:50;2.67;;;2.10;;
9445;SDS011;4761;49.490;10.908;2024-01-16T04:03:16;3.00;;;1.90;;
9445;SDS011;4761;49.490;10.908;2024-01-16T04:05:42;2.37;;;2.03;;
9445;SDS011;4761;49.490;10.908;2024-01-16T04:08:08;3.07;;;2.00;;
9445;SDS011;4761;49.490;10.908;2024-01-16T04:10:34;3.23;;;2.07;;
9445;SDS011;4761;49.490;10.908;2024-01-16T04:13:00;3.10;;;1.90;;
9445;SDS011;4761;49.490;10.908;2024-01-16T04:15:26;2.60;;;2.10;;
9445;SDS011;4761;49.490;10.908;2024-01-16T04:17:52;4.17;;;2.27;;
9445;SDS011;4761;49.490;10.908;2024-01-16T04:20:17;2.63;;;2.00;;
9445;SDS011;4761;49.490;10.908;2024-01-16T04:22:43;3.10;;;2.10;;
9445;SDS011;4761;49.490;10.908;2024-01-16T04:25:08;3.30;;;2.10;;
9445;SDS011;4761;49.490;10.908;2024-01-16T04:27:34;2.27;;;1.93;;
9445;SDS011;4761;49.490;10.908;2024-01-16T04:30:00;2.93;;;1.90;;
9445;SDS011;4761;49.490;10.908;2024-01-16T04:32:25;2.90;;;2.10;;
9445;SDS011;4761;49.490;10.908;2024-01-16T04:34:51;2.33;;;2.00;;
9445;SDS011;4761;49.490;10.908;2024-01-16T04:37:16;3.37;;;2.17;;
9445;SDS011;4761;49.490;10.908;2024-01-16T04:39:42;3.77;;;2.03;;
9445;SDS011;4761;49.490;10.908;2024-01-16T04:42:08;3.00;;;1.80;;
9445;SDS011;4761;49.490;10.908;2024-01-16T04:44:34;2.70;;;2.03;;
9445;SDS011;4761;49.490;10.908;2024-01-16T04:46:59;2.77;;;2.10;;
9445;SDS011;4761;49.490;10.908;2024-01-16T04:49:25;2.80;;;2.10;;
9445;SDS011;4761;49.490;10.908;2024-01-16T04:51:50;2.23;;;1.70;;
9445;SDS011;4761;49.490;10.908;2024-01-16T04:54:16;3.30;;;2.20;;
9445;SDS011;4761;49.490;10.908;2024-01-16T04:56:41;2.20;;;1.87;;
9445;SDS011;4761;49.490;10.908;2024-01-16T04:59:07;2.20;;;1.80;;
9445;SDS011;4761;49.490;10.908;2024-01-16T05:01:32;2.77;;;1.80;;
9445;SDS011;4761;49.490;10.908;2024-01-16T05:03:58;2.50;;;1.80;;
9445;SDS011;4761;49.490;10.908;2024-01-16T05:06:23;3.80;;;2.50;;
9445;SDS011;4761;49.490;10.908;2024-01-16T05:08:49;2.93;;;2.17;;
9445;SDS011;4761;49.490;10.908;2024-01-16T05:11:14;3.73;;;2.33;;
9445;SDS011;4761;49.490;10.908;2024-01-16T05:13:40;2.37;;;1.97;;
9445;SDS011;4761;49.490;10.908;2024-01-16T05:16:05;2.90;;;1.87;;
9445;SDS011;4761;49.490;10.908;2024-01-16T05:18:31;3.20;;;1.90;;
9445;SDS011;4761;49.490;10.908;2024-01-16T05:20:59;2.43;;;2.10;;
9445;SDS011;4761;49.490;10.908;2024-01-16T05:23:25;2.03;;;1.83;;
9445;SDS011;4761;49.490;10.908;2024-01-16T05:25:51;2.30;;;2.10;;
9445;SDS011;4761;49.490;10.908;2024-01-16T05:28:16;2.30;;;2.07;;
9445;SDS011;4761;49.490;10.908;2024-01-16T05:30:42;2.53;;;1.80;;
9445;SDS011;4761;49.490;10.908;2024-01-16T05:33:08;3.07;;;2.17;;
9445;SDS011;4761;49.490;10.908;2024-01-16T05:35:33;2.53;;;2.00;;
9445;SDS011;4761;49.490;10.908;2024-01-16T05:37:59;3.23;;;2.33;;
9445;SDS011;4761;49.490;10.908;2024-01-16T05:40:25;2.30;;;2.00;;
9445;SDS011;4761;49.490;10.908;2024-01-16T05:42:50;3.17;;;2.40;;
9445;SDS011;4761;49.490;10.908;2024-01-16T05:45:16;2.73;;;2.10;;
9445;SDS011;4761;49.490;10.908;2024-01-16T05:47:42;3.13;;;2.20;;
9445;SDS011;4761;49.490;10.908;2024-01-16T05:50:08;2.03;;;1.80;;
9445;SDS011;4761;49.490;10.908;2024-01-16T05:52:33;3.60;;;2.47;;
9445;SDS011;4761;49.490;10.908;2024-01-16T05:54:59;2.37;;;1.90;;
9445;SDS011;4761;49.490;10.908;2024-01-16T05:57:25;3.40;;;2.20;;
9445;SDS011;4761;49.490;10.908;2024-01-16T05:59:51;3.87;;;2.30;;
9445;SDS011;4761;49.490;10.908;2024-01-16T06:02:16;3.10;;;2.20;;
9445;SDS011;4761;49.490;10.908;2024-01-16T06:04:42;2.67;;;2.00;;
9445;SDS011;4761;49.490;10.908;2024-01-16T06:07:07;3.33;;;2.10;;
9445;SDS011;4761;49.490;10.908;2024-01-16T06:09:33;2.43;;;2.07;;
9445;SDS011;4761;49.490;10.908;2024-01-16T06:12:04;3.70;;;2.27;;
9445;SDS011;4761;49.490;10.908;2024-01-16T06:14:31;3.07;;;2.20;;
9445;SDS011;4761;49.490;10.908;2024-01-16T06:16:57;3.30;;;2.10;;
9445;SDS011;4761;49.490;10.908;2024-01-16T06:19:23;3.20;;;2.40;;
9445;SDS011;4761;49.490;10.908;2024-01-16T06:21:48;3.67;;;2.23;;
9445;SDS011;4761;49.490;10.908;2024-01-16T06:24:14;3.10;;;2.40;;
9445;SDS011;4761;49.490;10.908;2024-01-16T06:26:39;2.90;;;2.37;;
9445;SDS011;4761;49.490;10.908;2024-01-16T06:29:05;2.93;;;2.30;;
9445;SDS011;4761;49.490;10.908;2024-01-16T06:31:31;3.30;;;2.30;;
9445;SDS011;4761;49.490;10.908;2024-01-16T06:33:56;2.90;;;2.50;;
9445;SDS011;4761;49.490;10.908;2024-01-16T06:36:22;2.70;;;2.17;;
9445;SDS011;4761;49.490;10.908;2024-01-16T06:38:47;2.67;;;2.17;;
9445;SDS011;4761;49.490;10.908;2024-01-16T06:41:13;3.13;;;2.27;;
9445;SDS011;4761;49.490;10.908;2024-01-16T06:43:38;2.50;;;2.10;;
9445;SDS011;4761;49.490;10.908;2024-01-16T06:46:04;4.07;;;2.57;;
9445;SDS011;4761;49.490;10.908;2024-01-16T06:48:30;3.80;;;2.40;;
9445;SDS011;4761;49.490;10.908;2024-01-16T06:50:56;3.57;;;2.37;;
9445;SDS011;4761;49.490;10.908;2024-01-16T06:53:21;3.00;;;2.40;;
9445;SDS011;4761;49.490;10.908;2024-01-16T06:55:47;2.67;;;2.20;;
9445;SDS011;4761;49.490;10.908;2024-01-16T06:58:13;3.33;;;2.30;;
9445;SDS011;4761;49.490;10.908;2024-01-16T07:00:39;2.50;;;2.07;;
9445;SDS011;4761;49.490;10.908;2024-01-16T07:03:06;2.97;;;2.40;;
9445;SDS011;4761;49.490;10.908;2024-01-16T07:05:32;6.00;;;2.40;;
9445;SDS011;4761;49.490;10.908;2024-01-16T07:07:57;2.80;;;2.40;;
9445;SDS011;4761;49.490;10.908;2024-01-16T07:10:23;3.33;;;2.37;;
9445;SDS011;4761;49.490;10.908;2024-01-16T07:12:49;3.77;;;2.70;;
9445;SDS011;4761;49.490;10.908;2024-01-16T07:15:16;3.33;;;2.43;;
9445;SDS011;4761;49.490;10.908;2024-01-16T07:17:43;2.50;;;2.00;;
9445;SDS011;4761;49.490;10.908;2024-01-16T07:20:08;4.03;;;2.50;;
9445;SDS011;4761;49.490;10.908;2024-01-16T07:22:36;3.33;;;2.30;;
9445;SDS011;4761;49.490;10.908;2024-01-16T07:25:02;4.07;;;2.20;;
9445;SDS011;4761;49.490;10.908;2024-01-16T07:27:27;3.23;;;2.33;;
9445;SDS011;4761;49.490;10.908;2024-01-16T07:29:53;4.03;;;2.30;;
9445;SDS011;4761;49.490;10.908;2024-01-16T07:32:18;3.67;;;2.20;;
9445;SDS011;4761;49.490;10.908;2024-01-16T07:34:44;2.97;;;2.27;;
9445;SDS011;4761;49.490;10.908;2024-01-16T07:37:10;2.90;;;2.23;;
9445;SDS011;4761;49.490;10.908;2024-01-16T07:39:35;2.77;;;2.17;;
9445;SDS011;4761;49.490;10.908;2024-01-16T07:42:01;3.27;;;2.50;;
9445;SDS011;4761;49.490;10.908;2024-01-16T07:44:26;2.70;;;2.17;;
9445;SDS011;4761;49.490;10.908;2024-01-16T07:46:52;2.90;;;2.27;;
9445;SDS011;4761;49.490;10.908;2024-01-16T07:49:17;3.60;;;2.30;;
9445;SDS011;4761;49.490;10.908;2024-01-16T07:51:43;2.83;;;2.00;;
9445;SDS011;4761;49.490;10.908;2024-01-16T07:54:09;3.50;;;2.13;;
9445;SDS011;4761;49.490;10.908;2024-01-16T07:56:35;4.63;;;2.30;;
9445;SDS011;4761;49.490;10.908;2024-01-16T07:59:01;3.57;;;2.47;;
9445;SDS011;4761;49.490;10.908;2024-01-16T08:01:27;2.93;;;2.17;;
9445;SDS011;4761;49.490;10.908;2024-01-16T08:03:57;3.60;;;2.30;;
9445;SDS011;4761;49.490;10.908;2024-01-16T08:06:23;3.23;;;2.43;;
9445;SDS011;4761;49.490;10.908;2024-01-16T08:08:49;3.63;;;2.50;;
9445;SDS011;4761;49.490;10.908;2024-01-16T08:11:15;2.63;;;2.10;;
9445;SDS011;4761;49.490;10.908;2024-01-16T08:13:41;3.17;;;2.33;;
9445;SDS011;4761;49.490;10.908;2024-01-16T08:16:07;3.40;;;2.50;;
9445;SDS011;4761;49.490;10.908;2024-01-16T08:18:33;3.20;;;2.30;;
9445;SDS011;4761;49.490;10.908;2024-01-16T08:20:58;3.00;;;2.40;;
9445;SDS011;4761;49.490;10.908;2024-01-16T08:23:24;3.10;;;2.40;;
9445;SDS011;4761;49.490;10.908;2024-01-16T08:25:50;3.83;;;2.27;;
9445;SDS011;4761;49.490;10.908;2024-01-16T08:28:16;3.50;;;2.60;;
9445;SDS011;4761;49.490;10.908;2024-01-16T08:30:42;4.13;;;2.40;;
9445;SDS011;4761;49.490;10.908;2024-01-16T08:33:08;3.63;;;2.43;;
9445;SDS011;4761;49.490;10.908;2024-01-16T08:35:34;3.73;;;2.30;;
9445;SDS011;4761;49.490;10.908;2024-01-16T08:38:00;2.97;;;2.23;;
9445;SDS011;4761;49.490;10.908;2024-01-16T08:40:26;3.17;;;2.37;;
9445;SDS011;4761;49.490;10.908;2024-01-16T08:42:51;3.80;;;2.60;;
9445;SDS011;4761;49.490;10.908;2024-01-16T08:45:20;2.93;;;2.30;;
9445;SDS011;4761;49.490;10.908;2024-01-16T08:47:46;3.63;;;2.60;;
9445;SDS011;4761;49.490;10.908;2024-01-16T08:50:11;3.23;;;2.63;;
9445;SDS011;4761;49.490;10.908;2024-01-16T08:52:37;3.03;;;2.73;;
9445;SDS011;4761;49.490;10.908;2024-01-16T08:55:03;4.00;;;2.87;;
9445;SDS011;4761;49.490;10.908;2024-01-16T08:57:29;4.60;;;2.80;;
9445;SDS011;4761;49.490;10.908;2024-01-16T08:59:55;3.23;;;2.47;;
9445;SDS011;4761;49.490;10.908;2024-01-16T09:02:20;3.67;;;2.87;;
9445;SDS011;4761;49.490;10.908;2024-01-16T09:04:46;4.07;;;3.00;;
9445;SDS011;4761;49.490;10.908;2024-01-16T09:07:15;3.23;;;2.50;;
9445;SDS011;4761;49.490;10.908;2024-01-16T09:09:43;4.67;;;3.30;;
9445;SDS011;4761;49.490;10.908;2024-01-16T09:12:09;3.20;;;2.80;;
9445;SDS011;4761;49.490;10.908;2024-01-16T09:14:35;4.13;;;3.10;;
9445;SDS011;4761;49.490;10.908;2024-01-16T09:17:00;5.47;;;3.30;;
9445;SDS011;4761;49.490;10.908;2024-01-16T09:19:26;3.70;;;2.77;;
9445;SDS011;4761;49.490;10.908;2024-01-16T09:21:52;4.37;;;3.03;;
9445;SDS011;4761;49.490;10.908;2024-01-16T09:24:17;4.83;;;3.10;;
9445;SDS011;4761;49.490;10.908;2024-01-16T09:26:43;3.67;;;2.63;;
9445;SDS011;4761;49.490;10.908;2024-01-16T09:29:09;4.53;;;3.00;;
9445;SDS011;4761;49.490;10.908;2024-01-16T09:31:35;3.37;;;2.83;;
9445;SDS011;4761;49.490;10.908;2024-01-16T09:34:02;3.87;;;2.80;;
9445;SDS011;4761;49.490;10.908;2024-01-16T09:36:28;3.37;;;2.87;;
9445;SDS011;4761;49.490;10.908;2024-01-16T09:38:54;4.47;;;3.03;;
9445;SDS011;4761;49.490;10.908;2024-01-16T09:41:19;2.90;;;2.57;;
9445;SDS011;4761;49.490;10.908;2024-01-16T09:43:46;4.97;;;3.00;;
9445;SDS011;4761;49.490;10.908;2024-01-16T09:46:12;4.03;;;2.97;;
9445;SDS011;4761;49.490;10.908;2024-01-16T09:48:40;2.77;;;2.47;;
9445;SDS011;4761;49.490;10.908;2024-01-16T09:51:08;3.43;;;2.70;;
9445;SDS011;4761;49.490;10.908;2024-01-16T09:53:34;4.07;;;2.70;;
9445;SDS011;4761;49.490;10.908;2024-01-16T09:56:00;3.30;;;2.77;;
9445;SDS011;4761;49.490;10.908;2024-01-16T09:58:28;4.47;;;3.00;;
9445;SDS011;4761;49.490;10.908;2024-01-16T10:00:55;4.53;;;2.73;;
9445;SDS011;4761;49.490;10.908;2024-01-16T10:03:21;4.50;;;2.60;;
9445;SDS011;4761;49.490;10.908;2024-01-16T10:05:48;4.30;;;2.97;;
9445;SDS011;4761;49.490;10.908;2024-01-16T10:08:13;5.27;;;3.17;;
9445;SDS011;4761;49.490;10.908;2024-01-16T10:10:39;6.00;;;3.17;;
9445;SDS011;4761;49.490;10.908;2024-01-16T10:13:05;3.90;;;2.53;;
9445;SDS011;4761;49.490;10.908;2024-01-16T10:15:31;4.10;;;3.05;;
9445;SDS011;4761;49.490;10.908;2024-01-16T10:17:57;4.50;;;2.80;;
9445;SDS011;4761;49.490;10.908;2024-01-16T10:20:34;4.27;;;2.70;;
9445;SDS011;4761;49.490;10.908;2024-01-16T10:23:01;4.37;;;2.67;;
9445;SDS011;4761;49.490;10.908;2024-01-16T10:25:28;5.37;;;3.20;;
9445;SDS011;4761;49.490;10.908;2024-01-16T10:28:04;3.73;;;2.83;;
9445;SDS011;4761;49.490;10.908;2024-01-16T10:30:32;4.63;;;2.70;;
9445;SDS011;4761;49.490;10.908;2024-01-16T10:33:11;3.70;;;2.63;;
9445;SDS011;4761;49.490;10.908;2024-01-16T10:35:41;3.88;;;2.85;;
9445;SDS011;4761;49.490;10.908;2024-01-16T10:38:06;3.73;;;2.57;;
9445;SDS011;4761;49.490;10.908;2024-01-16T10:40:32;3.60;;;2.57;;
9445;SDS011;4761;49.490;10.908;2024-01-16T10:43:00;3.63;;;2.80;;
9445;SDS011;4761;49.490;10.908;2024-01-16T10:45:28;4.60;;;2.80;;
9445;SDS011;4761;49.490;10.908;2024-01-16T10:48:00;3.77;;;2.40;;
9445;SDS011;4761;49.490;10.908;2024-01-16T10:50:26;4.93;;;2.90;;
9445;SDS011;4761;49.490;10.908;2024-01-16T10:52:52;4.73;;;3.10;;
9445;SDS011;4761;49.490;10.908;2024-01-16T10:55:23;3.78;;;2.67;;
9445;SDS011;4761;49.490;10.908;2024-01-16T10:57:49;3.87;;;2.97;;
9445;SDS011;4761;49.490;10.908;2024-01-16T11:00:17;3.97;;;2.73;;
9445;SDS011;4761;49.490;10.908;2024-01-16T11:02:50;4.03;;;2.70;;
9445;SDS011;4761;49.490;10.908;2024-01-16T11:05:26;3.73;;;2.40;;
9445;SDS011;4761;49.490;10.908;2024-01-16T11:07:57;4.23;;;2.77;;
9445;SDS011;4761;49.490;10.908;2024-01-16T11:10:24;3.23;;;2.50;;
9445;SDS011;4761;49.490;10.908;2024-01-16T11:12:52;2.93;;;2.40;;
9445;SDS011;4761;49.490;10.908;2024-01-16T11:15:18;4.32;;;2.83;;
9445;SDS011;4761;49.490;10.908;2024-01-16T11:17:44;3.67;;;2.40;;
9445;SDS011;4761;49.490;10.908;2024-01-16T11:20:11;3.10;;;2.47;;
9445;SDS011;4761;49.490;10.908;2024-01-16T11:22:39;4.27;;;2.60;;
9445;SDS011;4761;49.490;10.908;2024-01-16T11:25:07;3.83;;;2.77;;
9445;SDS011;4761;49.490;10.908;2024-01-16T11:27:39;3.83;;;2.60;;
9445;SDS011;4761;49.490;10.908;2024-01-16T11:30:06;3.77;;;2.50;;
9445;SDS011;4761;49.490;10.908;2024-01-16T11:32:34;4.80;;;2.83;;
9445;SDS011;4761;49.490;10.908;2024-01-16T11:35:01;3.27;;;2.37;;
9445;SDS011;4761;49.490;10.908;2024-01-16T11:37:30;3.70;;;2.40;;
9445;SDS011;4761;49.490;10.908;2024-01-16T11:42:42;4.30;;;2.43;;
9445;SDS011;4761;49.490;10.908;2024-01-16T11:45:47;4.80;;;2.63;;
9445;SDS011;4761;49.490;10.908;2024-01-16T11:48:11;4.43;;;2.90;;
9445;SDS011;4761;49.490;10.908;2024-01-16T11:50:41;3.10;;;2.27;;
9445;SDS011;4761;49.490;10.908;2024-01-16T11:53:07;3.60;;;2.63;;
9445;SDS011;4761;49.490;10.908;2024-01-16T11:55:34;3.80;;;2.80;;
9445;SDS011;4761;49.490;10.908;2024-01-16T11:58:12;3.50;;;2.50;;
9445;SDS011;4761;49.490;10.908;2024-01-16T12:01:10;4.13;;;2.40;;
9445;SDS011;4761;49.490;10.908;2024-01-16T12:03:37;3.20;;;2.27;;
9445;SDS011;4761;49.490;10.908;2024-01-16T12:06:02;3.40;;;2.00;;
9445;SDS011;4761;49.490;10.908;2024-01-16T12:08:31;2.90;;;2.20;;
9445;SDS011;4761;49.490;10.908;2024-01-16T12:10:57;3.03;;;2.20;;
9445;SDS011;4761;49.490;10.908;2024-01-16T12:13:22;3.73;;;2.33;;
9445;SDS011;4761;49.490;10.908;2024-01-16T12:15:48;3.03;;;2.10;;
9445;SDS011;4761;49.490;10.908;2024-01-16T12:18:24;2.90;;;2.03;;
9445;SDS011;4761;49.490;10.908;2024-01-16T12:20:50;2.43;;;2.00;;
9445;SDS011;4761;49.490;10.908;2024-01-16T12:23:16;2.97;;;1.80;;
9445;SDS011;4761;49.490;10.908;2024-01-16T12:25:42;2.90;;;2.30;;
9445;SDS011;4761;49.490;10.908;2024-01-16T12:28:08;2.90;;;2.00;;
9445;SDS011;4761;49.490;10.908;2024-01-16T12:30:36;2.60;;;1.93;;
9445;SDS011;4761;49.490;10.908;2024-01-16T12:33:03;2.93;;;1.77;;
9445;SDS011;4761;49.490;10.908;2024-01-16T12:35:33;2.70;;;2.00;;
9445;SDS011;4761;49.490;10.908;2024-01-16T12:38:03;2.70;;;2.10;;
9445;SDS011;4761;49.490;10.908;2024-01-16T12:40:31;3.07;;;1.80;;
9445;SDS011;4761;49.490;10.908;2024-01-16T12:42:57;2.63;;;1.83;;
9445;SDS011;4761;49.490;10.908;2024-01-16T12:45:23;3.90;;;2.30;;
9445;SDS011;4761;49.490;10.908;2024-01-16T12:47:52;3.27;;;2.00;;
9445;SDS011;4761;49.490;10.908;2024-01-16T12:50:25;3.87;;;2.27;;
9445;SDS011;4761;49.490;10.908;2024-01-16T12:53:04;3.63;;;2.13;;
9445;SDS011;4761;49.490;10.908;2024-01-16T12:55:33;2.27;;;1.93;;
9445;SDS011;4761;49.490;10.908;2024-01-16T12:58:16;2.87;;;2.03;;
9445;SDS011;4761;49.490;10.908;2024-01-16T13:00:48;2.30;;;2.03;;
9445;SDS011;4761;49.490;10.908;2024-01-16T13:03:15;2.40;;;1.90;;
9445;SDS011;4761;49.490;10.908;2024-01-16T13:05:42;3.33;;;2.23;;
9445;SDS011;4761;49.490;10.908;2024-01-16T13:08:08;3.90;;;2.13;;
9445;SDS011;4761;49.490;10.908;2024-01-16T13:10:34;4.27;;;2.30;;
9445;SDS011;4761;49.490;10.908;2024-01-16T13:15:42;3.40;;;2.40;;
9445;SDS011;4761;49.490;10.908;2024-01-16T13:18:21;3.20;;;2.40;;
9445;SDS011;4761;49.490;10.908;2024-01-16T13:20:49;3.90;;;2.53;;
9445;SDS011;4761;49.490;10.908;2024-01-16T13:23:15;4.37;;;2.57;;
9445;SDS011;4761;49.490;10.908;2024-01-16T13:25:42;3.90;;;2.60;;
9445;SDS011;4761;49.490;10.908;2024-01-16T13:28:09;3.43;;;2.70;;
9445;SDS011;4761;49.490;10.908;2024-01-16T13:30:35;3.43;;;2.50;;
9445;SDS011;4761;49.490;10.908;2024-01-16T13:33:01;3.73;;;2.40;;
9445;SDS011;4761;49.490;10.908;2024-01-16T13:35:27;3.27;;;2.50;;
9445;SDS011;4761;49.490;10.908;2024-01-16T13:37:53;2.97;;;2.40;;
9445;SDS011;4761;49.490;10.908;2024-01-16T13:40:18;3.17;;;2.30;;
9445;SDS011;4761;49.490;10.908;2024-01-16T13:42:44;2.77;;;2.20;;
9445;SDS011;4761;49.490;10.908;2024-01-16T13:45:13;3.77;;;2.07;;
9445;SDS011;4761;49.490;10.908;2024-01-16T13:47:38;3.37;;;2.20;;
9445;SDS011;4761;49.490;10.908;2024-01-16T13:50:05;4.30;;;2.40;;
9445;SDS011;4761;49.490;10.908;2024-01-16T13:52:32;2.57;;;2.00;;
9445;SDS011;4761;49.490;10.908;2024-01-16T13:54:58;3.67;;;2.40;;
9445;SDS011;4761;49.490;10.908;2024-01-16T13:57:24;2.80;;;1.87;;
9445;SDS011;4761;49.490;10.908;2024-01-16T13:59:50;2.73;;;2.00;;
9445;SDS011;4761;49.490;10.908;2024-01-16T14:02:16;3.57;;;1.90;;
9445;SDS011;4761;49.490;10.908;2024-01-16T14:04:41;2.87;;;1.80;;
9445;SDS011;4761;49.490;10.908;2024-01-16T14:07:07;3.27;;;2.03;;
9445;SDS011;4761;49.490;10.908;2024-01-16T14:09:33;2.60;;;2.10;;
9445;SDS011;4761;49.490;10.908;2024-01-16T14:11:59;4.10;;;2.30;;
9445;SDS011;4761;49.490;10.908;2024-01-16T14:14:25;4.23;;;2.17;;
9445;SDS011;4761;49.490;10.908;2024-01-16T14:16:50;2.50;;;1.87;;
9445;SDS011;4761;49.490;10.908;2024-01-16T14:19:16;3.20;;;1.73;;
9445;SDS011;4761;49.490;10.908;2024-01-16T14:21:42;3.07;;;1.93;;
9445;SDS011;4761;49.490;10.908;2024-01-16T14:24:07;3.10;;;2.10;;
9445;SDS011;4761;49.490;10.908;2024-01-16T14:26:34;2.40;;;1.60;;
9445;SDS011;4761;49.490;10.908;2024-01-16T14:29:00;4.50;;;2.10;;
9445;SDS011;4761;49.490;10.908;2024-01-16T14:31:26;3.70;;;2.10;;
9445;SDS011;4761;49.490;10.908;2024-01-16T14:33:51;2.90;;;2.00;;
9445;SDS011;4761;49.490;10.908;2024-01-16T14:36:18;2.87;;;1.93;;
9445;SDS011;4761;49.490;10.908;2024-01-16T14:38:44;3.60;;;2.00;;
9445;SDS011;4761;49.490;10.908;2024-01-16T14:41:10;2.93;;;2.00;;
9445;SDS011;4761;49.490;10.908;2024-01-16T14:43:37;3.93;;;2.13;;
9445;SDS011;4761;49.490;10.908;2024-01-16T14:46:03;4.97;;;2.13;;
9445;SDS011;4761;49.490;10.908;2024-01-16T14:48:29;3.30;;;1.90;;
9445;SDS011;4761;49.490;10.908;2024-01-16T14:50:55;2.30;;;1.80;;
9445;SDS011;4761;49.490;10.908;2024-01-16T14:53:21;2.60;;;2.00;;
9445;SDS011;4761;49.490;10.908;2024-01-16T14:55:46;2.85;;;1.70;;
9445;SDS011;4761;49.490;10.908;2024-01-16T14:58:12;2.53;;;2.00;;
9445;SDS011;4761;49.490;10.908;2024-01-16T15:00:38;3.30;;;2.27;;
9445;SDS011;4761;49.490;10.908;2024-01-16T15:03:04;2.73;;;2.00;;
9445;SDS011;4761;49.490;10.908;2024-01-16T15:05:30;2.90;;;1.97;;